sensor_id;sensor_type;location;lat;lon;timestamp;temperature;humidity
26621;DHT22;14253;44.840;10.444;2023-02-15T00:02:16;3.70;99.90
26621;DHT22;14253;44.840;10.444;2023-02-15T00:04:42;3.70;99.90
26621;DHT22;14253;44.840;10.444;2023-02-15T00:07:15;3.60;99.90
26621;DHT22;14253;44.840;10.444;2023-02-15T00:09:41;3.60;99.90
26621;DHT22;14253;44.840;10.444;2023-02-15T00:12:09;3.50;99.90
26621;DHT22;14253;44.840;10.444;2023-02-15T00:14:35;3.50;99.90
26621;DHT22;14253;44.840;10.444;2023-02-15T00:17:01;3.50;99.90
26621;DHT22;14253;44.840;10.444;2023-02-15T00:19:27;3.50;99.90
26621;DHT22;14253;44.840;10.444;2023-02-15T00:21:53;3.50;99.90
26621;DHT22;14253;44.840;10.444;2023-02-15T00:24:19;3.40;99.90
26621;DHT22;14253;44.840;10.444;2023-02-15T00:26:46;3.40;99.90
26621;DHT22;14253;44.840;10.444;2023-02-15T00:29:13;3.30;99.90
26621;DHT22;14253;44.840;10.444;2023-02-15T00:31:40;3.30;99.90
26621;DHT22;14253;44.840;10.444;2023-02-15T00:34:10;3.30;99.90
26621;DHT22;14253;44.840;10.444;2023-02-15T00:36:36;3.30;99.90
26621;DHT22;14253;44.840;10.444;2023-02-15T00:39:02;3.20;99.90
26621;DHT22;14253;44.840;10.444;2023-02-15T00:41:31;3.20;99.90
26621;DHT22;14253;44.840;10.444;2023-02-15T00:43:57;3.20;99.90
26621;DHT22;14253;44.840;10.444;2023-02-15T00:46:23;3.20;99.90
26621;DHT22;14253;44.840;10.444;2023-02-15T00:48:49;3.20;99.90
26621;DHT22;14253;44.840;10.444;2023-02-15T00:51:15;3.20;99.90
26621;DHT22;14253;44.840;10.444;2023-02-15T00:53:43;3.20;99.90
26621;DHT22;14253;44.840;10.444;2023-02-15T00:56:10;3.20;99.90
26621;DHT22;14253;44.840;10.444;2023-02-15T00:58:36;3.20;99.90
26621;DHT22;14253;44.840;10.444;2023-02-15T01:01:07;3.10;99.90
26621;DHT22;14253;44.840;10.444;2023-02-15T01:03:34;3.10;99.90
26621;DHT22;14253;44.840;10.444;2023-02-15T01:06:02;3.10;99.90
26621;DHT22;14253;44.840;10.444;2023-02-15T01:08:28;3.10;99.90
26621;DHT22;14253;44.840;10.444;2023-02-15T01:10:54;3.00;99.90
26621;DHT22;14253;44.840;10.444;2023-02-15T01:13:21;2.90;99.90
26621;DHT22;14253;44.840;10.444;2023-02-15T01:15:53;2.90;99.90
26621;DHT22;14253;44.840;10.444;2023-02-15T01:18:20;2.90;99.90
26621;DHT22;14253;44.840;10.444;2023-02-15T01:20:48;2.80;99.90
26621;DHT22;14253;44.840;10.444;2023-02-15T01:23:14;2.80;99.90
26621;DHT22;14253;44.840;10.444;2023-02-15T01:25:40;2.80;99.90
26621;DHT22;14253;44.840;10.444;2023-02-15T01:28:06;2.70;99.90
26621;DHT22;14253;44.840;10.444;2023-02-15T01:30:32;2.70;99.90
26621;DHT22;14253;44.840;10.444;2023-02-15T01:32:59;2.70;99.90
26621;DHT22;14253;44.840;10.444;2023-02-15T01:35:27;2.60;99.90
26621;DHT22;14253;44.840;10.444;2023-02-15T01:37:55;2.70;99.90
26621;DHT22;14253;44.840;10.444;2023-02-15T01:40:21;2.60;99.90
26621;DHT22;14253;44.840;10.444;2023-02-15T01:42:52;2.70;99.90
26621;DHT22;14253;44.840;10.444;2023-02-15T01:45:30;2.70;99.90
26621;DHT22;14253;44.840;10.444;2023-02-15T01:50:37;2.60;99.90
26621;DHT22;14253;44.840;10.444;2023-02-15T01:53:21;2.70;99.90
26621;DHT22;14253;44.840;10.444;2023-02-15T01:55:57;2.70;99.90
26621;DHT22;14253;44.840;10.444;2023-02-15T01:58:26;2.60;99.90
26621;DHT22;14253;44.840;10.444;2023-02-15T02:00:56;2.60;99.90
26621;DHT22;14253;44.840;10.444;2023-02-15T02:06:12;2.60;99.90
26621;DHT22;14253;44.840;10.444;2023-02-15T02:08:40;2.60;99.90
26621;DHT22;14253;44.840;10.444;2023-02-15T02:11:12;2.50;99.90
26621;DHT22;14253;44.840;10.444;2023-02-15T02:13:40;2.50;99.90
26621;DHT22;14253;44.840;10.444;2023-02-15T02:29:58;2.40;99.90
26621;DHT22;14253;44.840;10.444;2023-02-15T02:33:05;2.30;99.90
26621;DHT22;14253;44.840;10.444;2023-02-15T02:35:57;2.30;99.90
26621;DHT22;14253;44.840;10.444;2023-02-15T02:38:44;2.30;99.90
26621;DHT22;14253;44.840;10.444;2023-02-15T02:44:04;2.20;99.90
26621;DHT22;14253;44.840;10.444;2023-02-15T02:47:08;2.30;99.90
26621;DHT22;14253;44.840;10.444;2023-02-15T02:49:37;2.30;99.90
26621;DHT22;14253;44.840;10.444;2023-02-15T02:52:07;2.20;99.90
26621;DHT22;14253;44.840;10.444;2023-02-15T02:54:34;2.10;99.90
26621;DHT22;14253;44.840;10.444;2023-02-15T02:57:04;2.10;99.90
26621;DHT22;14253;44.840;10.444;2023-02-15T02:59:34;2.10;99.90
26621;DHT22;14253;44.840;10.444;2023-02-15T03:02:17;2.10;99.90
26621;DHT22;14253;44.840;10.444;2023-02-15T03:04:47;2.00;99.90
26621;DHT22;14253;44.840;10.444;2023-02-15T03:07:18;2.10;99.90
26621;DHT22;14253;44.840;10.444;2023-02-15T03:09:54;2.00;99.90
26621;DHT22;14253;44.840;10.444;2023-02-15T03:12:24;2.10;99.90
26621;DHT22;14253;44.840;10.444;2023-02-15T03:17:28;2.10;99.90
26621;DHT22;14253;44.840;10.444;2023-02-15T03:19:59;2.00;99.90
26621;DHT22;14253;44.840;10.444;2023-02-15T03:22:38;2.00;99.90
26621;DHT22;14253;44.840;10.444;2023-02-15T03:25:19;2.00;99.90
26621;DHT22;14253;44.840;10.444;2023-02-15T03:27:49;2.00;99.90
26621;DHT22;14253;44.840;10.444;2023-02-15T03:30:21;1.90;99.90
26621;DHT22;14253;44.840;10.444;2023-02-15T03:32:49;1.80;99.90
26621;DHT22;14253;44.840;10.444;2023-02-15T03:35:17;1.80;99.90
26621;DHT22;14253;44.840;10.444;2023-02-15T03:37:51;1.60;99.90
26621;DHT22;14253;44.840;10.444;2023-02-15T03:40:22;1.60;99.90
26621;DHT22;14253;44.840;10.444;2023-02-15T03:43:56;1.60;99.90
26621;DHT22;14253;44.840;10.444;2023-02-15T03:46:26;1.50;99.90
26621;DHT22;14253;44.840;10.444;2023-02-15T03:49:21;1.50;99.90
26621;DHT22;14253;44.840;10.444;2023-02-15T03:51:50;1.40;99.90
26621;DHT22;14253;44.840;10.444;2023-02-15T03:57:09;1.40;99.90
26621;DHT22;14253;44.840;10.444;2023-02-15T03:59:54;1.40;99.90
26621;DHT22;14253;44.840;10.444;2023-02-15T04:05:26;1.40;99.90
26621;DHT22;14253;44.840;10.444;2023-02-15T04:07:52;1.30;99.90
26621;DHT22;14253;44.840;10.444;2023-02-15T04:10:18;1.30;99.90
26621;DHT22;14253;44.840;10.444;2023-02-15T04:13:03;1.20;99.90
26621;DHT22;14253;44.840;10.444;2023-02-15T04:15:28;1.30;99.90
26621;DHT22;14253;44.840;10.444;2023-02-15T04:18:13;1.40;99.90
26621;DHT22;14253;44.840;10.444;2023-02-15T04:20:42;1.30;99.90
26621;DHT22;14253;44.840;10.444;2023-02-15T04:23:27;1.20;99.90
26621;DHT22;14253;44.840;10.444;2023-02-15T04:26:11;1.20;99.90
26621;DHT22;14253;44.840;10.444;2023-02-15T04:28:37;1.20;99.90
26621;DHT22;14253;44.840;10.444;2023-02-15T04:31:03;1.20;99.90
26621;DHT22;14253;44.840;10.444;2023-02-15T04:33:29;1.30;99.90
26621;DHT22;14253;44.840;10.444;2023-02-15T04:35:55;1.20;99.90
26621;DHT22;14253;44.840;10.444;2023-02-15T04:38:22;1.10;99.90
26621;DHT22;14253;44.840;10.444;2023-02-15T04:40:52;1.10;99.90
26621;DHT22;14253;44.840;10.444;2023-02-15T04:43:20;1.10;99.90
26621;DHT22;14253;44.840;10.444;2023-02-15T04:45:50;1.10;99.90
26621;DHT22;14253;44.840;10.444;2023-02-15T04:48:16;1.00;99.90
26621;DHT22;14253;44.840;10.444;2023-02-15T04:50:43;1.10;99.90
26621;DHT22;14253;44.840;10.444;2023-02-15T04:53:09;1.10;99.90
26621;DHT22;14253;44.840;10.444;2023-02-15T04:55:35;1.10;99.90
26621;DHT22;14253;44.840;10.444;2023-02-15T04:58:01;1.00;99.90
26621;DHT22;14253;44.840;10.444;2023-02-15T05:00:27;1.00;99.90
26621;DHT22;14253;44.840;10.444;2023-02-15T05:02:53;1.00;99.90
26621;DHT22;14253;44.840;10.444;2023-02-15T05:05:19;1.10;99.90
26621;DHT22;14253;44.840;10.444;2023-02-15T05:07:45;1.10;99.90
26621;DHT22;14253;44.840;10.444;2023-02-15T05:10:12;1.10;99.90
26621;DHT22;14253;44.840;10.444;2023-02-15T05:12:38;1.10;99.90
26621;DHT22;14253;44.840;10.444;2023-02-15T05:15:04;1.10;99.90
26621;DHT22;14253;44.840;10.444;2023-02-15T05:17:30;1.10;99.90
26621;DHT22;14253;44.840;10.444;2023-02-15T05:19:56;1.10;99.90
26621;DHT22;14253;44.840;10.444;2023-02-15T05:22:21;1.10;99.90
26621;DHT22;14253;44.840;10.444;2023-02-15T05:24:47;1.00;99.90
26621;DHT22;14253;44.840;10.444;2023-02-15T05:27:32;1.00;99.90
26621;DHT22;14253;44.840;10.444;2023-02-15T05:30:17;1.00;99.90
26621;DHT22;14253;44.840;10.444;2023-02-15T05:32:42;1.00;99.90
26621;DHT22;14253;44.840;10.444;2023-02-15T05:35:13;0.90;99.90
26621;DHT22;14253;44.840;10.444;2023-02-15T05:37:40;0.90;99.90
26621;DHT22;14253;44.840;10.444;2023-02-15T05:40:07;0.90;99.90
26621;DHT22;14253;44.840;10.444;2023-02-15T05:42:33;1.00;99.90
26621;DHT22;14253;44.840;10.444;2023-02-15T05:44:58;1.00;99.90
26621;DHT22;14253;44.840;10.444;2023-02-15T05:47:24;0.90;99.90
26621;DHT22;14253;44.840;10.444;2023-02-15T05:49:50;1.00;99.90
26621;DHT22;14253;44.840;10.444;2023-02-15T05:52:16;1.00;99.90
26621;DHT22;14253;44.840;10.444;2023-02-15T05:54:42;1.00;99.90
26621;DHT22;14253;44.840;10.444;2023-02-15T05:57:08;0.90;99.90
26621;DHT22;14253;44.840;10.444;2023-02-15T05:59:34;0.90;99.90
26621;DHT22;14253;44.840;10.444;2023-02-15T06:02:00;0.90;99.90
26621;DHT22;14253;44.840;10.444;2023-02-15T06:04:26;0.90;99.90
26621;DHT22;14253;44.840;10.444;2023-02-15T06:06:52;0.90;99.90
26621;DHT22;14253;44.840;10.444;2023-02-15T06:09:18;0.80;99.90
26621;DHT22;14253;44.840;10.444;2023-02-15T06:11:45;0.70;99.90
26621;DHT22;14253;44.840;10.444;2023-02-15T06:14:11;0.60;99.90
26621;DHT22;14253;44.840;10.444;2023-02-15T06:16:37;0.60;99.90
26621;DHT22;14253;44.840;10.444;2023-02-15T06:19:03;0.60;99.90
26621;DHT22;14253;44.840;10.444;2023-02-15T06:21:30;0.60;99.90
26621;DHT22;14253;44.840;10.444;2023-02-15T06:23:56;0.60;99.90
26621;DHT22;14253;44.840;10.444;2023-02-15T06:26:23;0.70;99.90
26621;DHT22;14253;44.840;10.444;2023-02-15T06:28:49;0.80;99.90
26621;DHT22;14253;44.840;10.444;2023-02-15T06:31:15;0.90;99.90
26621;DHT22;14253;44.840;10.444;2023-02-15T06:33:41;0.80;99.90
26621;DHT22;14253;44.840;10.444;2023-02-15T06:36:06;0.80;99.90
26621;DHT22;14253;44.840;10.444;2023-02-15T06:38:32;0.90;99.90
26621;DHT22;14253;44.840;10.444;2023-02-15T06:40:58;1.00;99.90
26621;DHT22;14253;44.840;10.444;2023-02-15T06:43:24;1.10;99.90
26621;DHT22;14253;44.840;10.444;2023-02-15T06:45:50;1.10;99.90
26621;DHT22;14253;44.840;10.444;2023-02-15T06:48:16;1.00;99.90
26621;DHT22;14253;44.840;10.444;2023-02-15T06:50:42;1.20;99.90
26621;DHT22;14253;44.840;10.444;2023-02-15T06:53:08;1.20;99.90
26621;DHT22;14253;44.840;10.444;2023-02-15T06:55:34;1.40;99.90
26621;DHT22;14253;44.840;10.444;2023-02-15T06:58:00;1.50;99.90
26621;DHT22;14253;44.840;10.444;2023-02-15T07:00:26;1.60;99.90
26621;DHT22;14253;44.840;10.444;2023-02-15T07:02:55;1.80;99.90
26621;DHT22;14253;44.840;10.444;2023-02-15T07:05:22;1.90;99.90
26621;DHT22;14253;44.840;10.444;2023-02-15T07:07:48;2.00;99.90
26621;DHT22;14253;44.840;10.444;2023-02-15T07:10:14;2.20;99.90
26621;DHT22;14253;44.840;10.444;2023-02-15T07:12:40;2.40;99.90
26621;DHT22;14253;44.840;10.444;2023-02-15T07:15:12;2.50;99.90
26621;DHT22;14253;44.840;10.444;2023-02-15T07:17:39;2.70;99.90
26621;DHT22;14253;44.840;10.444;2023-02-15T07:20:08;2.80;99.90
26621;DHT22;14253;44.840;10.444;2023-02-15T07:22:35;3.00;99.90
26621;DHT22;14253;44.840;10.444;2023-02-15T07:25:06;3.20;99.90
26621;DHT22;14253;44.840;10.444;2023-02-15T07:27:32;3.40;99.90
26621;DHT22;14253;44.840;10.444;2023-02-15T07:30:00;3.70;99.90
26621;DHT22;14253;44.840;10.444;2023-02-15T07:32:30;3.80;99.90
26621;DHT22;14253;44.840;10.444;2023-02-15T07:34:57;4.00;99.90
26621;DHT22;14253;44.840;10.444;2023-02-15T07:37:24;4.20;99.90
26621;DHT22;14253;44.840;10.444;2023-02-15T07:39:51;4.40;99.90
26621;DHT22;14253;44.840;10.444;2023-02-15T07:42:17;4.70;99.90
26621;DHT22;14253;44.840;10.444;2023-02-15T07:44:46;4.90;99.90
26621;DHT22;14253;44.840;10.444;2023-02-15T07:47:12;5.10;99.90
26621;DHT22;14253;44.840;10.444;2023-02-15T07:49:38;5.30;99.90
26621;DHT22;14253;44.840;10.444;2023-02-15T07:52:04;5.50;99.90
26621;DHT22;14253;44.840;10.444;2023-02-15T07:54:32;5.60;99.90
26621;DHT22;14253;44.840;10.444;2023-02-15T07:56:59;5.70;99.90
26621;DHT22;14253;44.840;10.444;2023-02-15T07:59:26;5.80;99.90
26621;DHT22;14253;44.840;10.444;2023-02-15T08:01:52;5.90;99.90
26621;DHT22;14253;44.840;10.444;2023-02-15T08:04:19;5.90;99.90
26621;DHT22;14253;44.840;10.444;2023-02-15T08:06:45;5.80;99.90
26621;DHT22;14253;44.840;10.444;2023-02-15T08:09:11;5.70;99.90
26621;DHT22;14253;44.840;10.444;2023-02-15T08:11:38;5.80;99.90
26621;DHT22;14253;44.840;10.444;2023-02-15T08:14:21;5.80;99.90
26621;DHT22;14253;44.840;10.444;2023-02-15T08:16:51;5.80;99.90
26621;DHT22;14253;44.840;10.444;2023-02-15T08:19:29;6.00;99.90
26621;DHT22;14253;44.840;10.444;2023-02-15T08:21:58;6.10;99.90
26621;DHT22;14253;44.840;10.444;2023-02-15T08:24:26;6.20;99.90
26621;DHT22;14253;44.840;10.444;2023-02-15T08:26:52;6.30;99.90
26621;DHT22;14253;44.840;10.444;2023-02-15T08:29:22;6.40;99.90
26621;DHT22;14253;44.840;10.444;2023-02-15T08:31:50;6.50;99.90
26621;DHT22;14253;44.840;10.444;2023-02-15T08:34:20;6.70;99.90
26621;DHT22;14253;44.840;10.444;2023-02-15T08:36:46;6.80;99.90
26621;DHT22;14253;44.840;10.444;2023-02-15T08:39:14;6.90;99.90
26621;DHT22;14253;44.840;10.444;2023-02-15T08:41:45;7.00;99.90
26621;DHT22;14253;44.840;10.444;2023-02-15T08:44:12;7.10;99.90
26621;DHT22;14253;44.840;10.444;2023-02-15T08:46:40;7.30;99.90
26621;DHT22;14253;44.840;10.444;2023-02-15T08:49:08;7.40;99.90
26621;DHT22;14253;44.840;10.444;2023-02-15T08:51:36;7.40;99.90
26621;DHT22;14253;44.840;10.444;2023-02-15T08:54:08;7.50;99.90
26621;DHT22;14253;44.840;10.444;2023-02-15T08:56:36;7.60;99.90
26621;DHT22;14253;44.840;10.444;2023-02-15T08:59:04;7.60;99.90
26621;DHT22;14253;44.840;10.444;2023-02-15T09:01:32;7.60;99.90
26621;DHT22;14253;44.840;10.444;2023-02-15T09:04:01;7.60;99.90
26621;DHT22;14253;44.840;10.444;2023-02-15T09:06:27;7.80;99.90
26621;DHT22;14253;44.840;10.444;2023-02-15T09:08:54;7.90;99.90
26621;DHT22;14253;44.840;10.444;2023-02-15T09:11:22;7.90;99.90
26621;DHT22;14253;44.840;10.444;2023-02-15T09:14:06;8.00;99.90
26621;DHT22;14253;44.840;10.444;2023-02-15T09:16:35;8.10;99.90
26621;DHT22;14253;44.840;10.444;2023-02-15T09:19:03;8.30;99.90
26621;DHT22;14253;44.840;10.444;2023-02-15T09:21:33;8.40;99.90
26621;DHT22;14253;44.840;10.444;2023-02-15T09:24:03;8.40;99.90
26621;DHT22;14253;44.840;10.444;2023-02-15T09:26:31;8.50;99.90
26621;DHT22;14253;44.840;10.444;2023-02-15T09:29:00;8.70;99.90
26621;DHT22;14253;44.840;10.444;2023-02-15T09:31:29;8.70;99.90
26621;DHT22;14253;44.840;10.444;2023-02-15T09:33:56;8.80;99.90
26621;DHT22;14253;44.840;10.444;2023-02-15T09:36:25;8.80;99.90
26621;DHT22;14253;44.840;10.444;2023-02-15T09:39:03;8.90;99.90
26621;DHT22;14253;44.840;10.444;2023-02-15T09:41:40;9.00;99.90
26621;DHT22;14253;44.840;10.444;2023-02-15T09:50:15;9.20;99.90
26621;DHT22;14253;44.840;10.444;2023-02-15T10:07:26;10.10;99.90
26621;DHT22;14253;44.840;10.444;2023-02-15T10:24:37;10.70;99.90
26621;DHT22;14253;44.840;10.444;2023-02-15T10:27:12;10.80;99.90
26621;DHT22;14253;44.840;10.444;2023-02-15T10:29:46;11.00;99.90
26621;DHT22;14253;44.840;10.444;2023-02-15T10:32:24;11.10;99.90
26621;DHT22;14253;44.840;10.444;2023-02-15T10:40:47;11.40;99.90
26621;DHT22;14253;44.840;10.444;2023-02-15T10:46:16;11.60;99.90
26621;DHT22;14253;44.840;10.444;2023-02-15T10:57:27;12.00;99.90
26621;DHT22;14253;44.840;10.444;2023-02-15T11:06:11;12.20;99.90
26621;DHT22;14253;44.840;10.444;2023-02-15T11:08:46;12.30;99.90
26621;DHT22;14253;44.840;10.444;2023-02-15T11:11:23;12.40;99.90
26621;DHT22;14253;44.840;10.444;2023-02-15T11:13:54;12.50;99.90
26621;DHT22;14253;44.840;10.444;2023-02-15T11:21:47;12.90;99.90
26621;DHT22;14253;44.840;10.444;2023-02-15T11:24:18;12.90;99.90
26621;DHT22;14253;44.840;10.444;2023-02-15T11:27:04;13.00;99.90
26621;DHT22;14253;44.840;10.444;2023-02-15T11:30:01;13.10;99.90
26621;DHT22;14253;44.840;10.444;2023-02-15T11:32:33;13.20;99.90
26621;DHT22;14253;44.840;10.444;2023-02-15T11:40:27;13.50;99.90
26621;DHT22;14253;44.840;10.444;2023-02-15T11:42:59;13.80;99.90
26621;DHT22;14253;44.840;10.444;2023-02-15T11:45:32;13.90;99.90
26621;DHT22;14253;44.840;10.444;2023-02-15T11:48:00;14.00;99.90
26621;DHT22;14253;44.840;10.444;2023-02-15T11:50:29;14.10;99.90
26621;DHT22;14253;44.840;10.444;2023-02-15T11:53:02;14.10;99.90
26621;DHT22;14253;44.840;10.444;2023-02-15T11:55:29;14.30;99.90
26621;DHT22;14253;44.840;10.444;2023-02-15T12:00:38;14.40;99.90
26621;DHT22;14253;44.840;10.444;2023-02-15T12:03:22;14.60;99.90
26621;DHT22;14253;44.840;10.444;2023-02-15T12:05:57;14.60;99.90
26621;DHT22;14253;44.840;10.444;2023-02-15T12:08:37;14.70;99.90
26621;DHT22;14253;44.840;10.444;2023-02-15T12:11:17;14.70;99.90
26621;DHT22;14253;44.840;10.444;2023-02-15T12:14:02;14.80;99.90
26621;DHT22;14253;44.840;10.444;2023-02-15T12:16:31;14.70;99.90
26621;DHT22;14253;44.840;10.444;2023-02-15T12:18:59;15.00;99.90
26621;DHT22;14253;44.840;10.444;2023-02-15T12:21:29;15.00;99.90
26621;DHT22;14253;44.840;10.444;2023-02-15T12:24:09;15.00;99.90
26621;DHT22;14253;44.840;10.444;2023-02-15T12:26:40;15.20;99.90
26621;DHT22;14253;44.840;10.444;2023-02-15T12:29:15;15.30;99.90
26621;DHT22;14253;44.840;10.444;2023-02-15T12:31:44;15.30;99.90
26621;DHT22;14253;44.840;10.444;2023-02-15T12:36:54;15.30;99.90
26621;DHT22;14253;44.840;10.444;2023-02-15T12:39:32;15.40;99.90
26621;DHT22;14253;44.840;10.444;2023-02-15T12:42:05;15.50;99.90
26621;DHT22;14253;44.840;10.444;2023-02-15T12:44:38;15.60;99.90
26621;DHT22;14253;44.840;10.444;2023-02-15T12:47:19;15.50;99.90
26621;DHT22;14253;44.840;10.444;2023-02-15T12:50:22;15.70;99.90
26621;DHT22;14253;44.840;10.444;2023-02-15T12:52:50;15.90;99.90
26621;DHT22;14253;44.840;10.444;2023-02-15T12:55:26;16.20;99.90
26621;DHT22;14253;44.840;10.444;2023-02-15T12:58:19;16.30;99.90
26621;DHT22;14253;44.840;10.444;2023-02-15T13:00:45;16.20;99.90
26621;DHT22;14253;44.840;10.444;2023-02-15T13:03:20;16.10;99.90
26621;DHT22;14253;44.840;10.444;2023-02-15T13:05:51;16.10;99.90
26621;DHT22;14253;44.840;10.444;2023-02-15T13:11:29;16.20;99.90
26621;DHT22;14253;44.840;10.444;2023-02-15T13:14:20;16.20;99.90
26621;DHT22;14253;44.840;10.444;2023-02-15T13:16:51;16.50;99.90
26621;DHT22;14253;44.840;10.444;2023-02-15T13:19:43;16.40;99.90
26621;DHT22;14253;44.840;10.444;2023-02-15T13:22:25;16.50;99.90
26621;DHT22;14253;44.840;10.444;2023-02-15T13:25:08;16.60;99.90
26621;DHT22;14253;44.840;10.444;2023-02-15T13:27:39;16.60;99.90
26621;DHT22;14253;44.840;10.444;2023-02-15T13:30:34;16.70;99.90
26621;DHT22;14253;44.840;10.444;2023-02-15T13:33:06;16.80;99.90
26621;DHT22;14253;44.840;10.444;2023-02-15T13:35:50;16.80;99.90
26621;DHT22;14253;44.840;10.444;2023-02-15T13:41:17;16.90;99.90
26621;DHT22;14253;44.840;10.444;2023-02-15T13:43:57;17.00;99.90
26621;DHT22;14253;44.840;10.444;2023-02-15T13:52:13;17.00;99.90
26621;DHT22;14253;44.840;10.444;2023-02-15T13:55:02;17.00;99.90
26621;DHT22;14253;44.840;10.444;2023-02-15T14:14:27;16.90;99.90
26621;DHT22;14253;44.840;10.444;2023-02-15T14:17:26;16.80;99.90
26621;DHT22;14253;44.840;10.444;2023-02-15T14:26:01;17.60;99.90
26621;DHT22;14253;44.840;10.444;2023-02-15T14:28:50;17.80;99.90
26621;DHT22;14253;44.840;10.444;2023-02-15T14:31:21;17.80;99.90
26621;DHT22;14253;44.840;10.444;2023-02-15T14:33:55;18.00;99.90
26621;DHT22;14253;44.840;10.444;2023-02-15T14:36:23;18.30;99.90
26621;DHT22;14253;44.840;10.444;2023-02-15T14:41:28;18.90;99.90
26621;DHT22;14253;44.840;10.444;2023-02-15T14:49:17;20.10;99.90
26621;DHT22;14253;44.840;10.444;2023-02-15T14:56:44;21.60;99.90
26621;DHT22;14253;44.840;10.444;2023-02-15T15:02:00;22.50;99.90
26621;DHT22;14253;44.840;10.444;2023-02-15T15:09:30;23.20;99.90
26621;DHT22;14253;44.840;10.444;2023-02-15T15:14:44;23.60;99.90
26621;DHT22;14253;44.840;10.444;2023-02-15T15:17:13;23.60;99.90
26621;DHT22;14253;44.840;10.444;2023-02-15T15:19:58;23.90;99.90
26621;DHT22;14253;44.840;10.444;2023-02-15T15:22:26;24.10;99.90
26621;DHT22;14253;44.840;10.444;2023-02-15T15:27:50;24.60;99.90
26621;DHT22;14253;44.840;10.444;2023-02-15T15:41:16;21.30;99.90
26621;DHT22;14253;44.840;10.444;2023-02-15T15:49:16;18.10;99.90
26621;DHT22;14253;44.840;10.444;2023-02-15T15:51:44;17.50;99.90
26621;DHT22;14253;44.840;10.444;2023-02-15T15:54:21;17.10;99.90
26621;DHT22;14253;44.840;10.444;2023-02-15T15:56:59;16.60;99.90
26621;DHT22;14253;44.840;10.444;2023-02-15T15:59:29;16.30;99.90
26621;DHT22;14253;44.840;10.444;2023-02-15T16:02:03;15.90;99.90
26621;DHT22;14253;44.840;10.444;2023-02-15T16:04:32;15.70;99.90
26621;DHT22;14253;44.840;10.444;2023-02-15T16:09:55;15.10;99.90
26621;DHT22;14253;44.840;10.444;2023-02-15T16:12:23;14.90;99.90
26621;DHT22;14253;44.840;10.444;2023-02-15T16:14:49;14.80;99.90
26621;DHT22;14253;44.840;10.444;2023-02-15T16:17:23;14.60;99.90
26621;DHT22;14253;44.840;10.444;2023-02-15T16:19:50;14.40;99.90
26621;DHT22;14253;44.840;10.444;2023-02-15T16:22:26;14.20;99.90
26621;DHT22;14253;44.840;10.444;2023-02-15T16:27:47;13.80;99.90
26621;DHT22;14253;44.840;10.444;2023-02-15T16:33:12;13.40;99.90
26621;DHT22;14253;44.840;10.444;2023-02-15T16:35:42;13.20;99.90
26621;DHT22;14253;44.840;10.444;2023-02-15T16:41:05;12.80;99.90
26621;DHT22;14253;44.840;10.444;2023-02-15T16:43:32;12.60;99.90
26621;DHT22;14253;44.840;10.444;2023-02-15T16:46:11;12.40;99.90
26621;DHT22;14253;44.840;10.444;2023-02-15T16:48:42;12.20;99.90
26621;DHT22;14253;44.840;10.444;2023-02-15T16:51:09;12.10;99.90
26621;DHT22;14253;44.840;10.444;2023-02-15T16:53:37;11.90;99.90
26621;DHT22;14253;44.840;10.444;2023-02-15T16:56:05;11.80;99.90
26621;DHT22;14253;44.840;10.444;2023-02-15T16:58:44;11.60;99.90
26621;DHT22;14253;44.840;10.444;2023-02-15T17:01:13;11.60;99.90
26621;DHT22;14253;44.840;10.444;2023-02-15T17:03:41;11.40;99.90
26621;DHT22;14253;44.840;10.444;2023-02-15T17:06:39;11.30;99.90
26621;DHT22;14253;44.840;10.444;2023-02-15T17:09:13;11.10;99.90
26621;DHT22;14253;44.840;10.444;2023-02-15T17:11:41;11.00;99.90
26621;DHT22;14253;44.840;10.444;2023-02-15T17:17:00;10.80;99.90
26621;DHT22;14253;44.840;10.444;2023-02-15T17:19:31;10.70;99.90
26621;DHT22;14253;44.840;10.444;2023-02-15T17:22:02;10.50;99.90
26621;DHT22;14253;44.840;10.444;2023-02-15T17:24:40;10.40;99.90
26621;DHT22;14253;44.840;10.444;2023-02-15T17:27:14;10.30;99.90
26621;DHT22;14253;44.840;10.444;2023-02-15T17:29:51;10.20;99.90
26621;DHT22;14253;44.840;10.444;2023-02-15T17:32:25;10.10;99.90
26621;DHT22;14253;44.840;10.444;2023-02-15T17:37:46;10.00;99.90
26621;DHT22;14253;44.840;10.444;2023-02-15T17:40:24;10.00;99.90
26621;DHT22;14253;44.840;10.444;2023-02-15T17:42:51;9.90;99.90
26621;DHT22;14253;44.840;10.444;2023-02-15T17:45:17;9.80;99.90
26621;DHT22;14253;44.840;10.444;2023-02-15T17:47:45;9.70;99.90
26621;DHT22;14253;44.840;10.444;2023-02-15T17:50:25;9.70;99.90
26621;DHT22;14253;44.840;10.444;2023-02-15T17:52:52;9.60;99.90
26621;DHT22;14253;44.840;10.444;2023-02-15T17:55:20;9.50;99.90
26621;DHT22;14253;44.840;10.444;2023-02-15T17:58:16;9.50;99.90
26621;DHT22;14253;44.840;10.444;2023-02-15T18:00:49;9.40;99.90
26621;DHT22;14253;44.840;10.444;2023-02-15T18:03:46;9.30;99.90
26621;DHT22;14253;44.840;10.444;2023-02-15T18:06:32;9.30;99.90
26621;DHT22;14253;44.840;10.444;2023-02-15T18:09:19;9.20;99.90
26621;DHT22;14253;44.840;10.444;2023-02-15T18:12:30;9.20;99.90
26621;DHT22;14253;44.840;10.444;2023-02-15T18:14:57;9.20;99.90
26621;DHT22;14253;44.840;10.444;2023-02-15T18:17:37;9.10;99.90
26621;DHT22;14253;44.840;10.444;2023-02-15T18:20:09;9.00;99.90
26621;DHT22;14253;44.840;10.444;2023-02-15T18:22:36;8.90;99.90
26621;DHT22;14253;44.840;10.444;2023-02-15T18:25:02;8.80;99.90
26621;DHT22;14253;44.840;10.444;2023-02-15T18:27:28;8.70;99.90
26621;DHT22;14253;44.840;10.444;2023-02-15T18:29:54;8.70;99.90
26621;DHT22;14253;44.840;10.444;2023-02-15T18:32:30;8.60;99.90
26621;DHT22;14253;44.840;10.444;2023-02-15T18:34:57;8.50;99.90
26621;DHT22;14253;44.840;10.444;2023-02-15T18:37:31;8.40;99.90
26621;DHT22;14253;44.840;10.444;2023-02-15T18:39:59;8.30;99.90
26621;DHT22;14253;44.840;10.444;2023-02-15T18:42:27;8.30;99.90
26621;DHT22;14253;44.840;10.444;2023-02-15T18:45:18;8.20;99.90
26621;DHT22;14253;44.840;10.444;2023-02-15T18:47:49;8.10;99.90
26621;DHT22;14253;44.840;10.444;2023-02-15T18:50:18;8.00;99.90
26621;DHT22;14253;44.840;10.444;2023-02-15T18:52:47;7.90;99.90
26621;DHT22;14253;44.840;10.444;2023-02-15T18:55:23;7.80;99.90
26621;DHT22;14253;44.840;10.444;2023-02-15T18:57:51;7.70;99.90
26621;DHT22;14253;44.840;10.444;2023-02-15T19:00:29;7.70;99.90
26621;DHT22;14253;44.840;10.444;2023-02-15T19:02:57;7.60;99.90
26621;DHT22;14253;44.840;10.444;2023-02-15T19:05:24;7.60;99.90
26621;DHT22;14253;44.840;10.444;2023-02-15T19:07:52;7.50;99.90
26621;DHT22;14253;44.840;10.444;2023-02-15T19:10:21;7.40;99.90
26621;DHT22;14253;44.840;10.444;2023-02-15T19:12:49;7.40;99.90